createdAt,value
2019-06-08T00:00:59.883Z,97781.14
2019-06-08T00:02:04.116Z,97773.13
2019-06-08T00:03:07.979Z,97769.40
2019-06-08T00:04:12.934Z,97779.52
2019-06-08T00:05:16.951Z,97773.08
2019-06-08T00:06:23.229Z,97769.38
2019-06-08T00:07:26.790Z,97778.53
2019-06-08T00:08:31.010Z,97776.94
2019-06-08T00:09:34.726Z,97776.92
2019-06-08T00:10:38.915Z,97770.26
2019-06-08T00:11:42.543Z,97774.54
2019-06-08T00:12:46.702Z,97774.54
2019-06-08T00:13:50.331Z,97775.91
2019-06-08T00:14:54.561Z,97771.97
2019-06-08T00:15:58.165Z,97775.66
2019-06-08T00:17:02.327Z,97770.94
2019-06-08T00:18:05.947Z,97773.80
2019-06-08T00:19:10.086Z,97769.70
2019-06-08T00:20:15.759Z,97774.35
2019-06-08T00:21:20.223Z,97776.27
2019-06-08T00:22:24.004Z,97776.05
2019-06-08T00:23:28.102Z,97777.21
2019-06-08T00:24:31.983Z,97773.70
2019-06-08T00:25:36.190Z,97774.91
2019-06-08T00:26:39.714Z,97777.63
2019-06-08T00:27:43.810Z,97775.84
2019-06-08T00:28:47.358Z,97774.48
2019-06-08T00:29:51.521Z,97774.67
2019-06-08T00:30:55.030Z,97772.09
2019-06-08T00:31:59.196Z,97777.55
2019-06-08T00:33:02.822Z,97774.61
2019-06-08T00:34:07.383Z,97781.25
2019-06-08T00:35:11.118Z,97779.88
2019-06-08T00:36:15.185Z,97780.85
2019-06-08T00:37:18.862Z,97774.61
2019-06-08T00:38:23.094Z,97776.37
2019-06-08T00:39:26.734Z,97776.37
2019-06-08T00:40:31.017Z,97777.31
2019-06-08T00:41:34.654Z,97774.77
2019-06-08T00:42:38.759Z,97775.72
2019-06-08T00:43:42.320Z,97771.97
2019-06-08T00:44:46.479Z,97775.63
2019-06-08T00:45:50.108Z,97776.39
2019-06-08T00:46:54.338Z,97776.39
2019-06-08T00:47:58.004Z,97779.09
2019-06-08T00:49:02.207Z,97781.02
2019-06-08T00:50:06.950Z,97781.23
2019-06-08T00:51:11.279Z,97777.15
2019-06-08T00:52:15.292Z,97783.96
2019-06-08T00:53:20.134Z,97785.33
2019-06-08T00:54:25.808Z,97784.69
2019-06-08T00:55:30.075Z,97789.75
2019-06-08T00:56:33.617Z,97783.87
2019-06-08T00:57:37.852Z,97781.94
2019-06-08T00:58:41.461Z,97788.53
2019-06-08T00:59:45.530Z,97787.84
2019-06-08T01:00:49.152Z,97780.97
2019-06-08T01:01:53.370Z,97779.76
2019-06-08T01:02:57.007Z,97781.09
2019-06-08T01:04:01.248Z,97780.15
2019-06-08T01:05:07.080Z,97778.61
2019-06-08T01:06:11.335Z,97771.22
2019-06-08T01:07:14.974Z,97776.30
2019-06-08T01:08:20.677Z,97769.86
2019-06-08T01:09:24.584Z,97779.73
2019-06-08T01:10:29.706Z,97776.79
2019-06-08T01:11:33.408Z,97781.09
2019-06-08T01:12:37.635Z,97783.59
2019-06-08T01:13:41.257Z,97782.81
2019-06-08T01:14:45.864Z,97783.39
2019-06-08T01:15:49.502Z,97783.20
2019-06-08T01:16:53.696Z,97783.20
2019-06-08T01:18:02.667Z,97785.53
2019-06-08T01:19:03.269Z,97790.01
2019-06-08T01:20:08.031Z,97787.86
2019-06-08T01:21:12.100Z,97786.50
2019-06-08T01:22:15.638Z,97785.14
2019-06-08T01:23:19.870Z,97785.92
2019-06-08T01:24:23.705Z,97789.01
2019-06-08T01:25:28.430Z,97790.91
2019-06-08T01:26:32.059Z,97786.05
2019-06-08T01:27:36.323Z,97784.11
2019-06-08T01:28:39.886Z,97783.89
2019-06-08T01:29:44.554Z,97777.05
2019-06-08T01:30:48.193Z,97780.28
2019-06-08T01:31:52.288Z,97775.23
2019-06-08T01:32:56.228Z,97777.89
2019-06-08T01:34:00.465Z,97778.06
2019-06-08T01:35:04.710Z,97775.13
2019-06-08T01:36:09.094Z,97781.94
2019-06-08T01:37:12.678Z,97781.69
2019-06-08T01:38:16.858Z,97775.81
2019-06-08T01:39:21.119Z,97781.05
2019-06-08T01:40:25.906Z,97786.31
2019-06-08T01:41:29.710Z,97784.70
2019-06-08T01:42:33.838Z,97784.05
2019-06-08T01:43:37.424Z,97787.34
2019-06-08T01:44:41.691Z,97783.27
2019-06-08T01:45:45.315Z,97786.56
2019-06-08T01:46:49.482Z,97787.13
2019-06-08T01:47:53.037Z,97782.87
2019-06-08T01:48:57.286Z,97779.14
2019-06-08T01:50:00.949Z,97776.00
2019-06-08T01:51:05.990Z,97775.59
2019-06-08T01:52:09.594Z,97773.66
2019-06-08T01:53:14.137Z,97775.95
2019-06-08T01:54:17.722Z,97775.74
2019-06-08T01:55:23.003Z,97774.02
2019-06-08T01:56:27.091Z,97777.89
2019-06-08T01:57:31.594Z,97774.59
2019-06-08T01:58:35.346Z,97775.74
2019-06-08T01:59:39.570Z,97773.98
2019-06-08T02:00:43.198Z,97776.70
2019-06-08T02:01:47.469Z,97769.47
2019-06-08T02:02:51.392Z,97769.11
2019-06-08T02:03:55.545Z,97778.06
2019-06-08T02:04:59.345Z,97777.85
2019-06-08T02:06:03.741Z,97780.14
2019-06-08T02:07:07.438Z,97782.87
2019-06-08T02:08:11.672Z,97781.29
2019-06-08T02:09:15.305Z,97779.14
2019-06-08T02:10:21.335Z,97788.09
2019-06-08T02:11:24.920Z,97784.40
2019-06-08T02:12:29.100Z,97785.91
2019-06-08T02:13:33.147Z,97792.13
2019-06-08T02:14:37.473Z,97792.70
2019-06-08T02:15:41.121Z,97785.29
2019-06-08T02:16:45.262Z,97790.95
2019-06-08T02:17:48.944Z,97794.02
2019-06-08T02:18:53.159Z,97792.80
2019-06-08T02:19:56.641Z,97796.20
2019-06-08T02:21:00.881Z,97792.91
2019-06-08T02:22:04.604Z,97796.98
2019-06-08T02:23:08.855Z,97797.13
2019-06-08T02:24:12.488Z,97794.41
2019-06-08T02:25:18.331Z,97796.55
2019-06-08T02:26:21.958Z,97799.27
2019-06-08T02:27:27.243Z,97797.70
2019-06-08T02:28:31.562Z,97798.02
2019-06-08T02:29:35.879Z,97797.80
2019-06-08T02:30:41.966Z,97792.57
2019-06-08T02:31:47.981Z,97792.57
2019-06-08T02:32:50.736Z,97795.86
2019-06-08T02:33:54.986Z,97798.59
2019-06-08T02:34:58.887Z,97795.08
2019-06-08T02:36:02.842Z,97789.23
2019-06-08T02:37:06.467Z,97797.97
2019-06-08T02:38:10.698Z,97794.67
2019-06-08T02:39:14.385Z,97792.88
2019-06-08T02:40:19.009Z,97803.33
2019-06-08T02:41:22.605Z,97796.34
2019-06-08T02:42:28.511Z,97794.55
2019-06-08T02:43:33.344Z,97797.84
2019-06-08T02:44:37.737Z,97797.05
2019-06-08T02:45:41.938Z,97794.72
2019-06-08T02:46:46.109Z,97798.02
2019-06-08T02:47:49.734Z,97798.16
2019-06-08T02:49:03.331Z,97800.30
2019-06-08T02:49:59.263Z,97795.44
2019-06-08T02:51:03.990Z,97795.03
2019-06-08T02:52:07.636Z,97795.60
2019-06-08T02:53:12.562Z,97792.31
2019-06-08T02:54:16.485Z,97794.03
2019-06-08T02:55:20.679Z,97797.89
2019-06-08T02:56:25.218Z,97792.88
2019-06-08T02:57:33.207Z,97790.35
2019-06-08T02:58:40.352Z,97793.28
2019-06-08T02:59:44.554Z,97793.28
2019-06-08T03:00:50.069Z,97791.88
2019-06-08T03:01:56.524Z,97790.87
2019-06-08T03:03:01.147Z,97794.95
2019-06-08T03:04:05.702Z,97796.09
2019-06-08T03:05:09.546Z,97794.55
2019-06-08T03:06:16.165Z,97796.27
2019-06-08T03:07:22.498Z,97797.98
2019-06-08T03:08:29.390Z,97805.30
2019-06-08T03:09:34.779Z,97803.37
2019-06-08T03:10:41.361Z,97808.45
2019-06-08T03:11:47.032Z,97804.87
2019-06-08T03:12:53.205Z,97802.75
2019-06-08T03:13:58.296Z,97806.04
2019-06-08T03:15:04.497Z,97808.32
2019-06-08T03:16:08.110Z,97810.03
2019-06-08T03:17:12.317Z,97807.89
2019-06-08T03:18:16.157Z,97805.77
2019-06-08T03:19:22.668Z,97814.14
2019-06-08T03:20:25.911Z,97812.08
2019-06-08T03:21:31.389Z,97813.44
2019-06-08T03:22:37.156Z,97808.63
2019-06-08T03:23:42.915Z,97802.97
2019-06-08T03:24:46.398Z,97809.36
2019-06-08T03:25:52.878Z,97805.28
2019-06-08T03:26:56.265Z,97809.55
2019-06-08T03:28:00.337Z,97802.97
2019-06-08T03:29:03.987Z,97804.33
2019-06-08T03:30:17.639Z,97811.64
2019-06-08T03:31:16.697Z,97813.52
2019-06-08T03:32:20.861Z,97811.95
2019-06-08T03:33:24.498Z,97815.80
2019-06-08T03:34:28.644Z,97813.52
2019-06-08T03:35:34.880Z,97812.16
2019-06-08T03:36:43.860Z,97815.09
2019-06-08T03:37:44.432Z,97813.92
2019-06-08T03:38:48.808Z,97816.08
2019-06-08T03:39:52.307Z,97817.65
2019-06-08T03:40:56.545Z,97819.36
2019-06-08T03:42:00.237Z,97815.28
2019-06-08T03:43:04.441Z,97823.25
2019-06-08T03:44:08.069Z,97826.95
2019-06-08T03:45:12.704Z,97826.02
2019-06-08T03:46:16.351Z,97819.80
2019-06-08T03:47:20.589Z,97822.30
2019-06-08T03:48:24.604Z,97824.80
2019-06-08T03:49:41.305Z,97826.38
2019-06-08T03:50:35.532Z,97827.95
2019-06-08T03:51:43.632Z,97834.97
2019-06-08T03:52:46.275Z,97826.45
2019-06-08T03:53:50.706Z,97825.45
2019-06-08T03:54:54.718Z,97819.01
2019-06-08T03:55:58.856Z,97824.80
2019-06-08T03:57:02.426Z,97820.15
2019-06-08T03:58:06.790Z,97825.02
2019-06-08T03:59:10.351Z,97820.02
2019-06-08T04:00:15.362Z,97820.23
2019-06-08T04:01:19.115Z,97820.64
2019-06-08T04:02:23.314Z,97824.94
2019-06-08T04:03:26.935Z,97819.93
2019-06-08T04:04:31.147Z,97826.91
2019-06-08T04:05:34.757Z,97823.84
2019-06-08T04:06:39.875Z,97826.78
2019-06-08T04:07:45.882Z,97827.34
2019-06-08T04:08:50.018Z,97829.84
2019-06-08T04:09:53.695Z,97833.83
2019-06-08T04:10:57.817Z,97833.83
2019-06-08T04:12:01.568Z,97836.16
2019-06-08T04:13:05.771Z,97836.55
2019-06-08T04:14:09.457Z,97837.90
2019-06-08T04:15:14.181Z,97835.37
2019-06-08T04:16:19.387Z,97839.31
2019-06-08T04:17:23.831Z,97838.22
2019-06-08T04:18:27.477Z,97834.14
2019-06-08T04:19:31.659Z,97838.22
2019-06-08T04:20:35.311Z,97837.48
2019-06-08T04:21:40.263Z,97841.08
2019-06-08T04:22:47.121Z,97844.85
2019-06-08T04:23:51.612Z,97845.74
2019-06-08T04:24:55.308Z,97850.09
2019-06-08T04:25:59.454Z,97853.38
2019-06-08T04:27:03.015Z,97850.09
2019-06-08T04:28:07.399Z,97850.30
2019-06-08T04:29:10.971Z,97853.45
2019-06-08T04:30:15.904Z,97849.78
2019-06-08T04:31:19.512Z,97851.58
2019-06-08T04:32:23.717Z,97852.98
2019-06-08T04:33:27.346Z,97853.98
2019-06-08T04:34:31.493Z,97852.67
2019-06-08T04:35:35.365Z,97853.11
2019-06-08T04:36:41.239Z,97846.45
2019-06-08T04:37:47.000Z,97851.53
2019-06-08T04:38:51.384Z,97858.95
2019-06-08T04:39:54.957Z,97851.22
2019-06-08T04:40:59.047Z,97857.19
2019-06-08T04:42:02.713Z,97855.78
2019-06-08T04:43:07.015Z,97856.70
2019-06-08T04:44:10.644Z,97854.42
2019-06-08T04:45:15.261Z,97856.75
2019-06-08T04:46:18.883Z,97856.83
2019-06-08T04:47:23.209Z,97856.09
2019-06-08T04:48:26.846Z,97857.17
2019-06-08T04:49:31.125Z,97856.59
2019-06-08T04:50:34.753Z,97855.28
2019-06-08T04:51:40.608Z,97855.14
2019-06-08T04:52:44.998Z,97845.66
2019-06-08T04:53:49.907Z,97851.64
2019-06-08T04:54:53.608Z,97848.08
2019-06-08T04:56:01.242Z,97848.84
2019-06-08T04:57:04.895Z,97854.57
2019-06-08T04:58:09.080Z,97855.41
2019-06-08T04:59:12.711Z,97851.32
2019-06-08T05:00:17.127Z,97850.53
2019-06-08T05:01:20.745Z,97849.00
2019-06-08T05:02:24.854Z,97849.69
2019-06-08T05:03:28.454Z,97848.38
2019-06-08T05:04:32.620Z,97848.02
2019-06-08T05:05:36.750Z,97850.02
2019-06-08T05:06:41.070Z,97848.48
2019-06-08T05:07:46.443Z,97855.50
2019-06-08T05:08:53.572Z,97852.35
2019-06-08T05:09:58.780Z,97853.93
2019-06-08T05:11:04.016Z,97858.76
2019-06-08T05:12:07.707Z,97855.82
2019-06-08T05:13:11.933Z,97855.50
2019-06-08T05:14:15.819Z,97858.27
2019-06-08T05:15:20.030Z,97861.82
2019-06-08T05:16:23.688Z,97859.06
2019-06-08T05:17:27.843Z,97854.05
2019-06-08T05:18:31.399Z,97859.88
2019-06-08T05:19:35.796Z,97855.08
2019-06-08T05:20:42.090Z,97849.95
2019-06-08T05:21:45.519Z,97853.50
2019-06-08T05:22:49.794Z,97854.55
2019-06-08T05:23:58.586Z,97857.87
2019-06-08T05:24:59.715Z,97857.16
2019-06-08T05:26:03.794Z,97856.95
2019-06-08T05:27:07.437Z,97857.55
2019-06-08T05:28:11.649Z,97855.59
2019-06-08T05:29:15.295Z,97858.73
2019-06-08T05:30:20.315Z,97859.17
2019-06-08T05:31:23.965Z,97853.72
2019-06-08T05:32:28.531Z,97857.16
2019-06-08T05:33:32.100Z,97858.13
2019-06-08T05:34:36.204Z,97855.66
2019-06-08T05:35:39.872Z,97847.95
2019-06-08T05:36:45.389Z,97850.68
2019-06-08T05:37:49.798Z,97853.87
2019-06-08T05:38:53.980Z,97851.19
2019-06-08T05:39:57.620Z,97842.27
2019-06-08T05:41:01.815Z,97851.61
2019-06-08T05:42:05.563Z,97852.97
2019-06-08T05:43:09.705Z,97852.66
2019-06-08T05:44:15.556Z,97858.17
2019-06-08T05:45:19.805Z,97857.23
2019-06-08T05:46:23.494Z,97861.93
2019-06-08T05:47:27.642Z,97862.69
2019-06-08T05:48:31.169Z,97862.75
2019-06-08T05:49:35.450Z,97860.66
2019-06-08T05:50:55.899Z,97858.44
2019-06-08T05:51:45.832Z,97862.77
2019-06-08T05:52:50.340Z,97862.65
2019-06-08T05:53:54.614Z,97863.47
2019-06-08T05:54:58.181Z,97864.05
2019-06-08T05:56:02.320Z,97867.80
2019-06-08T05:57:05.984Z,97866.47
2019-06-08T05:58:10.216Z,97867.11
2019-06-08T05:59:14.200Z,97867.47
2019-06-08T06:00:18.815Z,97865.68
2019-06-08T06:01:22.446Z,97868.65
2019-06-08T06:02:27.317Z,97860.53
2019-06-08T06:03:30.937Z,97866.80
2019-06-08T06:04:36.211Z,97865.67
2019-06-08T06:05:40.245Z,97857.92
2019-06-08T06:06:44.635Z,97860.22
2019-06-08T06:07:49.034Z,97858.05
2019-06-08T06:08:54.417Z,97864.10
2019-06-08T06:10:02.264Z,97851.61
2019-06-08T06:11:06.490Z,97855.56
2019-06-08T06:12:20.982Z,97853.66
2019-06-08T06:13:25.192Z,97853.02
2019-06-08T06:14:31.631Z,97856.28
2019-06-08T06:15:35.885Z,97855.41
2019-06-08T06:16:40.877Z,97854.70
2019-06-08T06:17:48.431Z,97856.09
2019-06-08T06:18:52.790Z,97852.70
2019-06-08T06:19:57.010Z,97854.09
2019-06-08T06:21:10.958Z,97847.12
2019-06-08T06:22:08.544Z,97849.11
2019-06-08T06:23:12.220Z,97852.69
2019-06-08T06:24:16.461Z,97852.94
2019-06-08T06:25:20.055Z,97855.91
2019-06-08T06:26:24.283Z,97853.63
2019-06-08T06:27:28.292Z,97854.05
2019-06-08T06:28:32.549Z,97857.98
2019-06-08T06:29:36.202Z,97856.83
2019-06-08T06:30:41.571Z,97858.44
2019-06-08T06:32:14.384Z,97856.55
2019-06-08T06:33:18.402Z,97855.38
2019-06-08T06:34:22.081Z,97844.82
2019-06-08T06:35:26.292Z,97850.90
2019-06-08T06:36:29.868Z,97852.67
2019-06-08T06:37:34.132Z,97852.29
2019-06-08T06:38:37.700Z,97849.58
2019-06-08T06:39:42.017Z,97849.97
2019-06-08T06:40:45.959Z,97849.58
2019-06-08T06:41:50.211Z,97846.27
2019-06-08T06:42:56.652Z,97851.16
2019-06-08T06:44:02.396Z,97851.18
2019-06-08T06:45:15.115Z,97844.51
2019-06-08T06:46:23.697Z,97849.59
2019-06-08T06:47:27.256Z,97841.77
2019-06-08T06:48:31.487Z,97841.72
2019-06-08T06:49:35.562Z,97843.10
2019-06-08T06:50:39.852Z,97844.42
2019-06-08T06:51:44.386Z,97839.91
2019-06-08T06:52:48.985Z,97839.13
2019-06-08T06:53:53.315Z,97841.23
2019-06-08T06:54:57.668Z,97842.14
2019-06-08T06:56:01.298Z,97844.50
2019-06-08T06:57:05.593Z,97842.72
2019-06-08T06:58:09.064Z,97842.91
2019-06-08T06:59:14.293Z,97844.84
2019-06-08T07:00:20.816Z,97850.70
2019-06-08T07:01:25.053Z,97847.53
2019-06-08T07:02:29.528Z,97843.19
2019-06-08T07:03:33.760Z,97844.53
2019-06-08T07:04:37.425Z,97849.96
2019-06-08T07:05:41.637Z,97846.66
2019-06-08T07:06:48.020Z,97845.61
2019-06-08T07:07:52.477Z,97845.73
2019-06-08T07:08:56.127Z,97840.38
2019-06-08T07:10:00.354Z,97846.22
2019-06-08T07:11:03.979Z,97840.96
2019-06-08T07:12:08.205Z,97840.12
2019-06-08T07:13:11.872Z,97838.13
2019-06-08T07:14:16.079Z,97836.72
2019-06-08T07:15:27.664Z,97839.59
2019-06-08T07:16:31.878Z,97837.11
2019-06-08T07:17:35.503Z,97829.32
2019-06-08T07:18:39.700Z,97829.84
2019-06-08T07:19:43.225Z,97827.80
2019-06-08T07:20:48.124Z,97828.68
2019-06-08T07:21:53.172Z,97826.17
2019-06-08T07:22:59.023Z,97824.90
2019-06-08T07:24:02.753Z,97824.44
2019-06-08T07:25:07.888Z,97823.89
2019-06-08T07:26:13.148Z,97825.19
2019-06-08T07:27:17.372Z,97825.28
2019-06-08T07:28:20.957Z,97823.86
2019-06-08T07:29:25.190Z,97824.14
2019-06-08T07:30:28.847Z,97822.69
2019-06-08T07:31:33.087Z,97820.98
2019-06-08T07:32:36.590Z,97819.73
2019-06-08T07:33:41.126Z,97824.25
2019-06-08T07:34:44.806Z,97819.02
2019-06-08T07:35:49.970Z,97821.66
2019-06-08T07:36:55.539Z,97820.14
2019-06-08T07:37:59.917Z,97821.95
2019-06-08T07:39:03.711Z,97818.44
2019-06-08T07:40:09.464Z,97815.53
2019-06-08T07:41:13.482Z,97810.78
2019-06-08T07:42:17.634Z,97818.56
2019-06-08T07:43:21.270Z,97820.93
2019-06-08T07:44:25.497Z,97816.95
2019-06-08T07:45:29.238Z,97817.79
2019-06-08T07:46:33.471Z,97812.47
2019-06-08T07:47:37.098Z,97813.36
2019-06-08T07:48:41.354Z,97811.34
2019-06-08T07:49:44.920Z,97814.69
2019-06-08T07:50:50.261Z,97812.73
2019-06-08T07:52:03.239Z,97809.62
2019-06-08T07:52:59.719Z,97811.56
2019-06-08T07:54:03.547Z,97805.30
2019-06-08T07:55:07.855Z,97802.79
2019-06-08T07:56:11.498Z,97803.91
2019-06-08T07:57:15.708Z,97810.62
2019-06-08T07:58:19.396Z,97812.06
2019-06-08T07:59:23.465Z,97807.76
2019-06-08T08:00:27.110Z,97808.51
2019-06-08T08:01:36.056Z,97804.14
2019-06-08T08:02:36.706Z,97806.27
2019-06-08T08:03:40.953Z,97810.34
2019-06-08T08:04:44.594Z,97808.10
2019-06-08T08:05:48.733Z,97809.21
2019-06-08T08:06:52.534Z,97810.77
2019-06-08T08:07:56.944Z,97811.47
2019-06-08T08:09:00.548Z,97810.72
2019-06-08T08:10:07.646Z,97805.00
2019-06-08T08:11:11.339Z,97804.91
2019-06-08T08:12:15.504Z,97802.98
2019-06-08T08:13:19.154Z,97799.39
2019-06-08T08:14:23.272Z,97801.88
2019-06-08T08:15:26.919Z,97803.30
2019-06-08T08:16:30.993Z,97798.33
2019-06-08T08:17:34.640Z,97798.73
2019-06-08T08:18:38.850Z,97795.55
2019-06-08T08:19:42.563Z,97795.30
2019-06-08T08:20:46.771Z,97798.49
2019-06-08T08:21:52.958Z,97794.46
2019-06-08T08:23:02.172Z,97794.76
2019-06-08T08:24:01.899Z,97791.34
2019-06-08T08:25:08.215Z,97793.00
2019-06-08T08:26:12.085Z,97786.03
2019-06-08T08:27:17.899Z,97780.08
2019-06-08T08:28:21.883Z,97782.92
2019-06-08T08:29:28.246Z,97778.38
2019-06-08T08:30:31.583Z,97783.53
2019-06-08T08:31:37.413Z,97781.73
2019-06-08T08:32:41.094Z,97781.87
2019-06-08T08:33:45.337Z,97779.19
2019-06-08T08:34:50.378Z,97774.91
2019-06-08T08:35:55.576Z,97777.16
2019-06-08T08:37:05.792Z,97777.69
2019-06-08T08:38:07.611Z,97774.84
2019-06-08T08:39:10.881Z,97775.31
2019-06-08T08:40:15.060Z,97772.59
2019-06-08T08:41:18.746Z,97776.77
2019-06-08T08:42:22.950Z,97771.48
2019-06-08T08:43:28.041Z,97770.11
2019-06-08T08:44:32.465Z,97769.52
2019-06-08T08:45:37.360Z,97763.69
2019-06-08T08:46:41.802Z,97764.48
2019-06-08T08:47:45.502Z,97768.19
2019-06-08T08:48:50.949Z,97762.38
2019-06-08T08:49:56.761Z,97762.41
2019-06-08T08:51:03.524Z,97759.94
2019-06-08T08:52:08.814Z,97761.28
2019-06-08T08:53:17.888Z,97758.41
2019-06-08T08:54:18.626Z,97760.69
2019-06-08T08:55:27.943Z,97758.47
2019-06-08T08:56:31.452Z,97759.85
2019-06-08T08:57:38.582Z,97759.13
2019-06-08T08:58:43.860Z,97758.05
2019-06-08T08:59:51.835Z,97756.75
2019-06-08T09:00:54.103Z,97760.19
2019-06-08T09:02:01.596Z,97758.34
2019-06-08T09:03:24.006Z,97756.20
2019-06-08T09:04:14.233Z,97757.02
2019-06-08T09:05:18.227Z,97759.51
2019-06-08T09:06:23.843Z,97753.95
2019-06-08T09:07:27.871Z,97755.41
2019-06-08T09:08:32.036Z,97751.97
2019-06-08T09:09:38.426Z,97745.12
2019-06-08T09:10:41.649Z,97745.13
2019-06-08T09:11:48.106Z,97747.97
2019-06-08T09:12:52.246Z,97748.73
2019-06-08T09:14:05.141Z,97746.81
2019-06-08T09:15:05.168Z,97752.56
2019-06-08T09:16:08.794Z,97752.63
2019-06-08T09:17:12.934Z,97748.02
2019-06-08T09:18:18.622Z,97750.02
2019-06-08T09:19:22.556Z,97750.70
2019-06-08T09:20:28.587Z,97750.19
2019-06-08T09:21:32.057Z,97744.45
2019-06-08T09:22:50.244Z,97741.86
2019-06-08T09:23:44.597Z,97741.17
2019-06-08T09:24:48.665Z,97742.91
2019-06-08T09:26:01.355Z,97744.11
2019-06-08T09:27:04.015Z,97744.19
2019-06-08T09:28:09.366Z,97737.09
2019-06-08T09:29:12.992Z,97736.03
2019-06-08T09:30:18.236Z,97741.92
2019-06-08T09:31:22.181Z,97736.05
2019-06-08T09:32:28.192Z,97739.80
2019-06-08T09:35:04.796Z,97731.37
2019-06-08T09:36:08.582Z,97731.21
2019-06-08T09:37:12.829Z,97737.09
2019-06-08T09:38:18.535Z,97726.28
2019-06-08T09:39:22.356Z,97733.08
2019-06-08T09:40:28.433Z,97730.55
2019-06-08T09:41:31.917Z,97725.11
2019-06-08T09:42:35.562Z,97721.09
2019-06-08T09:43:39.790Z,97723.73
2019-06-08T09:44:43.403Z,97725.19
2019-06-08T09:45:48.345Z,97723.19
2019-06-08T09:46:53.572Z,97723.66
2019-06-08T09:48:01.825Z,97726.91
2019-06-08T09:49:06.502Z,97722.87
2019-06-08T09:50:09.992Z,97724.44
2019-06-08T09:51:13.539Z,97724.28
2019-06-08T09:52:18.387Z,97721.34
2019-06-08T09:53:31.916Z,97714.71
2019-06-08T09:54:29.479Z,97719.78
2019-06-08T09:55:33.101Z,97723.47
2019-06-08T09:56:37.958Z,97717.73
2019-06-08T09:57:41.622Z,97717.56
2019-06-08T09:58:45.796Z,97715.25
2019-06-08T09:59:49.347Z,97711.64
2019-06-08T10:00:55.075Z,97713.94
2019-06-08T10:02:05.074Z,97706.26
2019-06-08T10:03:07.162Z,97708.14
2019-06-08T10:04:10.927Z,97707.66
2019-06-08T10:05:18.301Z,97701.19
2019-06-08T10:06:21.367Z,97701.49
2019-06-08T10:07:25.442Z,97703.91
2019-06-08T10:08:29.166Z,97695.72
2019-06-08T10:09:33.342Z,97693.13
2019-06-08T10:10:36.995Z,97697.16
2019-06-08T10:11:41.173Z,97695.09
2019-06-08T10:12:44.831Z,97688.25
2019-06-08T10:13:49.006Z,97680.72
2019-06-08T10:14:52.661Z,97686.81
2019-06-08T10:16:00.013Z,97675.09
2019-06-08T10:17:03.921Z,97684.89
2019-06-08T10:18:08.308Z,97680.45
2019-06-08T10:19:12.048Z,97686.75
2019-06-08T10:20:18.488Z,97682.33
2019-06-08T10:21:22.731Z,97685.79
2019-06-08T10:22:28.283Z,97682.48
2019-06-08T10:23:34.483Z,97681.67
2019-06-08T10:24:38.776Z,97669.75
2019-06-08T10:25:43.263Z,97671.48
2019-06-08T10:26:47.855Z,97669.37
2019-06-08T10:27:51.628Z,97664.44
2019-06-08T10:28:58.686Z,97668.23
2019-06-08T10:30:03.232Z,97670.88
2019-06-08T10:31:07.425Z,97672.62
2019-06-08T10:32:12.741Z,97664.64
2019-06-08T10:33:18.410Z,97664.17
2019-06-08T10:34:22.310Z,97667.19
2019-06-08T10:35:28.359Z,97664.91
2019-06-08T10:36:32.351Z,97662.75
2019-06-08T10:37:38.413Z,97666.92
2019-06-08T10:38:42.365Z,97665.06
2019-06-08T10:39:47.843Z,97660.45
2019-06-08T10:41:06.858Z,97662.98
2019-06-08T10:42:09.808Z,97659.30
2019-06-08T10:43:12.442Z,97662.50
2019-06-08T10:44:18.307Z,97661.42
2019-06-08T10:45:22.295Z,97655.27
2019-06-08T10:46:26.519Z,97658.29
2019-06-08T10:47:30.514Z,97658.44
2019-06-08T10:48:37.493Z,97658.36
2019-06-08T10:49:40.484Z,97654.59
2019-06-08T10:50:44.607Z,97651.70
2019-06-08T10:51:48.891Z,97653.22
2019-06-08T10:52:53.328Z,97650.69
2019-06-08T10:53:57.977Z,97648.05
2019-06-08T10:55:04.857Z,97651.53
2019-06-08T10:56:10.416Z,97645.77
2019-06-08T10:57:13.643Z,97647.69
2019-06-08T10:58:19.490Z,97645.52
2019-06-08T10:59:23.796Z,97642.73
2019-06-08T11:00:28.234Z,97639.68
2019-06-08T11:01:32.678Z,97641.03
2019-06-08T11:02:37.573Z,97637.41
2019-06-08T11:03:42.264Z,97643.95
2019-06-08T11:04:48.310Z,97641.69
2019-06-08T11:05:51.877Z,97640.51
2019-06-08T11:06:58.035Z,97640.00
2019-06-08T11:08:02.922Z,97634.14
2019-06-08T11:09:12.610Z,97636.69
2019-06-08T11:10:13.559Z,97633.51
2019-06-08T11:11:19.825Z,97641.02
2019-06-08T11:12:23.458Z,97637.80
2019-06-08T11:13:28.309Z,97631.80
2019-06-08T11:14:32.723Z,97635.73
2019-06-08T11:15:37.834Z,97634.38
2019-06-08T11:16:42.339Z,97632.04
2019-06-08T11:17:45.915Z,97631.48
2019-06-08T11:18:51.133Z,97624.52
2019-06-08T11:19:54.804Z,97632.19
2019-06-08T11:21:00.511Z,97628.98
2019-06-08T11:22:07.707Z,97631.00
2019-06-08T11:23:12.334Z,97628.77
2019-06-08T11:24:23.502Z,97627.88
2019-06-08T11:25:21.661Z,97629.99
2019-06-08T11:26:28.916Z,97621.46
2019-06-08T11:27:33.314Z,97623.45
2019-06-08T11:28:38.288Z,97619.64
2019-06-08T11:29:42.612Z,97618.91
2019-06-08T11:30:48.060Z,97620.67
2019-06-08T11:31:52.113Z,97630.44
2019-06-08T11:32:57.709Z,97627.65
2019-06-08T11:34:06.166Z,97631.42
2019-06-08T11:35:12.337Z,97627.94
2019-06-08T11:36:18.603Z,97624.85
2019-06-08T11:37:21.547Z,97625.30
2019-06-08T11:38:28.705Z,97622.65
2019-06-08T11:39:30.985Z,97618.16
2019-06-08T11:40:37.782Z,97621.73
2019-06-08T11:41:40.689Z,97612.53
2019-06-08T11:42:45.486Z,97617.67
2019-06-08T11:43:49.142Z,97618.47
2019-06-08T11:44:53.587Z,97615.15
2019-06-08T11:45:58.409Z,97615.83
2019-06-08T11:47:04.574Z,97617.81
2019-06-08T11:48:08.763Z,97614.69
2019-06-08T11:49:14.982Z,97612.69
2019-06-08T11:50:24.494Z,97613.86
2019-06-08T11:51:29.828Z,97607.59
2019-06-08T11:52:33.601Z,97608.22
2019-06-08T11:53:38.433Z,97599.58
2019-06-08T11:54:42.244Z,97605.94
2019-06-08T11:55:50.753Z,97603.59
2019-06-08T11:56:53.909Z,97605.62
2019-06-08T11:57:58.629Z,97593.59
2019-06-08T11:59:03.347Z,97593.88
2019-06-08T12:00:22.365Z,97596.02
2019-06-08T12:01:18.364Z,97601.96
2019-06-08T12:02:21.725Z,97592.17
2019-06-08T12:03:27.671Z,97595.16
2019-06-08T12:04:31.636Z,97589.66
2019-06-08T12:05:35.261Z,97593.02
2019-06-08T12:06:43.060Z,97593.56
2019-06-08T12:07:48.039Z,97587.23
2019-06-08T12:08:52.301Z,97583.31
2019-06-08T12:09:57.905Z,97587.83
2019-06-08T12:11:03.783Z,97584.46
2019-06-08T12:12:12.283Z,97587.45
2019-06-08T12:13:18.217Z,97583.80
2019-06-08T12:14:22.037Z,97584.08
2019-06-08T12:15:28.168Z,97581.96
2019-06-08T12:16:31.664Z,97585.30
2019-06-08T12:17:35.804Z,97580.42
2019-06-08T12:18:40.394Z,97580.42
2019-06-08T12:19:44.771Z,97577.30
2019-06-08T12:20:48.957Z,97587.67
2019-06-08T12:21:53.330Z,97575.88
2019-06-08T12:22:56.889Z,97576.23
2019-06-08T12:24:01.115Z,97574.41
2019-06-08T12:25:08.029Z,97578.59
2019-06-08T12:26:12.391Z,97576.57
2019-06-08T12:27:29.184Z,97570.92
2019-06-08T12:28:22.033Z,97579.15
2019-06-08T12:29:25.603Z,97579.09
2019-06-08T12:30:29.882Z,97578.29
2019-06-08T12:31:33.436Z,97576.80
2019-06-08T12:32:37.607Z,97579.20
2019-06-08T12:33:41.192Z,97575.89
2019-06-08T12:34:45.683Z,97571.25
2019-06-08T12:35:49.355Z,97572.26
2019-06-08T12:36:53.562Z,97576.57
2019-06-08T12:37:58.098Z,97568.98
2019-06-08T12:39:02.556Z,97568.40
2019-06-08T12:40:09.739Z,97569.52
2019-06-08T12:41:14.074Z,97572.60